createdAt,value
2018-04-13T00:01:48.893Z,84.30
2018-04-13T00:04:16.435Z,84.10
2018-04-13T00:06:44.758Z,84.50
2018-04-13T00:09:12.272Z,84.50
2018-04-13T00:11:39.803Z,84.80
2018-04-13T00:14:07.360Z,85.30
2018-04-13T00:16:34.884Z,85.10
2018-04-13T00:19:02.441Z,84.80
2018-04-13T00:21:29.970Z,85.00
2018-04-13T00:23:58.289Z,84.70
2018-04-13T00:26:25.825Z,84.60
2018-04-13T00:28:53.345Z,84.90
2018-04-13T00:31:20.908Z,86.30
2018-04-13T00:33:50.173Z,86.10
2018-04-13T00:36:17.725Z,86.10
2018-04-13T00:38:45.428Z,86.90
2018-04-13T00:41:12.979Z,87.40
2018-04-13T00:43:40.538Z,85.70
2018-04-13T00:46:09.064Z,84.50
2018-04-13T00:48:36.625Z,84.00
2018-04-13T00:51:05.085Z,84.00
2018-04-13T00:53:33.413Z,83.20
2018-04-13T00:56:00.994Z,83.20
2018-04-13T00:58:28.556Z,83.40
2018-04-13T01:00:56.094Z,84.40
2018-04-13T01:03:23.620Z,85.20
2018-04-13T01:05:51.197Z,86.30
2018-04-13T01:08:18.735Z,86.60
2018-04-13T01:10:46.316Z,86.80
2018-04-13T01:13:13.847Z,88.30
2018-04-13T01:15:41.409Z,88.40
2018-04-13T01:18:08.940Z,88.50
2018-04-13T01:20:36.487Z,88.60
2018-04-13T01:23:04.051Z,88.40
2018-04-13T01:25:31.578Z,89.10
2018-04-13T01:28:01.110Z,88.90
2018-04-13T01:30:29.409Z,88.50
2018-04-13T01:32:58.705Z,88.00
2018-04-13T01:35:27.983Z,88.40
2018-04-13T01:37:55.516Z,88.40
2018-04-13T01:40:25.002Z,88.00
2018-04-13T01:42:52.538Z,87.80
2018-04-13T01:45:20.094Z,87.10
2018-04-13T01:47:47.645Z,86.80
2018-04-13T01:50:15.205Z,86.80
2018-04-13T01:52:42.733Z,88.20
2018-04-13T01:55:10.275Z,87.50
2018-04-13T01:57:39.842Z,86.80
2018-04-13T02:00:07.387Z,86.10
2018-04-13T02:02:35.039Z,85.80
2018-04-13T02:05:02.506Z,86.40
2018-04-13T02:07:30.049Z,86.60
2018-04-13T02:09:57.577Z,87.20
2018-04-13T02:12:25.103Z,87.40
2018-04-13T02:14:52.673Z,87.80
2018-04-13T02:17:20.201Z,88.50
2018-04-13T02:19:47.745Z,87.70
2018-04-13T02:22:15.287Z,88.10
2018-04-13T02:24:42.866Z,88.10
2018-04-13T02:27:10.386Z,88.60
2018-04-13T02:29:37.913Z,90.10
2018-04-13T02:32:05.471Z,88.90
2018-04-13T02:34:33.115Z,88.70
2018-04-13T02:37:00.612Z,88.30
2018-04-13T02:39:28.149Z,87.90
2018-04-13T02:41:55.742Z,87.60
2018-04-13T02:44:23.799Z,87.00
2018-04-13T02:46:51.324Z,86.10
2018-04-13T02:49:19.654Z,86.90
2018-04-13T02:51:47.186Z,86.90
2018-04-13T02:54:14.746Z,86.60
2018-04-13T02:56:42.261Z,86.20
2018-04-13T02:59:11.761Z,87.60
2018-04-13T03:01:39.310Z,87.20
2018-04-13T03:04:07.793Z,87.70
2018-04-13T03:06:35.351Z,87.70
2018-04-13T03:09:02.871Z,87.20
2018-04-13T03:11:30.437Z,87.30
2018-04-13T03:13:59.668Z,87.40
2018-04-13T03:16:27.195Z,87.30
2018-04-13T03:18:56.764Z,87.30
2018-04-13T03:21:24.251Z,87.50
2018-04-13T03:23:51.794Z,86.50
2018-04-13T03:26:19.313Z,86.80
2018-04-13T03:28:46.836Z,87.10
2018-04-13T03:31:14.381Z,87.00
2018-04-13T03:33:41.911Z,85.90
2018-04-13T03:36:09.457Z,85.40
2018-04-13T03:38:36.976Z,85.80
2018-04-13T03:41:04.518Z,85.80
2018-04-13T03:43:32.032Z,86.40
2018-04-13T03:45:59.565Z,86.60
2018-04-13T03:48:27.124Z,86.50
2018-04-13T03:50:54.645Z,85.90
2018-04-13T03:53:22.197Z,86.30
2018-04-13T03:55:49.720Z,86.30
2018-04-13T03:58:17.273Z,85.50
2018-04-13T04:00:44.792Z,86.50
2018-04-13T04:03:12.313Z,86.60
2018-04-13T04:05:39.848Z,86.50
2018-04-13T04:08:07.360Z,86.40
2018-04-13T04:10:34.928Z,86.60
2018-04-13T04:13:02.640Z,85.30
2018-04-13T04:15:32.900Z,85.40
2018-04-13T04:18:00.441Z,85.40
2018-04-13T04:20:39.637Z,85.30
2018-04-13T04:23:19.874Z,83.90
2018-04-13T04:28:47.465Z,83.90
2018-04-13T04:31:16.981Z,84.20
2018-04-13T04:33:45.719Z,85.00
2018-04-13T04:36:13.234Z,85.00
2018-04-13T04:38:40.789Z,86.20
2018-04-13T04:41:08.324Z,87.30
2018-04-13T04:43:38.841Z,88.40
2018-04-13T04:46:06.384Z,88.50
2018-04-13T04:48:33.972Z,88.80
2018-04-13T04:51:01.508Z,87.60
2018-04-13T04:53:29.024Z,85.90
2018-04-13T04:55:56.568Z,87.20
2018-04-13T04:58:24.089Z,87.50
2018-04-13T05:00:51.640Z,87.50
2018-04-13T05:03:19.189Z,86.60
2018-04-13T05:05:46.736Z,87.70
2018-04-13T05:08:14.314Z,87.40
2018-04-13T05:10:42.797Z,87.30
2018-04-13T05:13:10.345Z,87.40
2018-04-13T05:15:37.869Z,87.30
2018-04-13T05:18:07.417Z,87.40
2018-04-13T05:20:34.933Z,87.00
2018-04-13T05:23:03.253Z,86.70
2018-04-13T05:25:30.804Z,86.60
2018-04-13T05:27:58.315Z,86.70
2018-04-13T05:30:26.630Z,86.60
2018-04-13T05:32:54.145Z,86.60
2018-04-13T05:35:21.752Z,86.60
2018-04-13T05:37:49.985Z,86.30
2018-04-13T05:40:17.530Z,86.30
2018-04-13T05:42:45.080Z,86.20
2018-04-13T05:45:12.665Z,84.70
2018-04-13T05:47:40.176Z,84.70
2018-04-13T05:50:08.662Z,83.00
2018-04-13T05:52:36.220Z,82.60
2018-04-13T05:55:03.751Z,82.50
2018-04-13T05:57:31.312Z,83.20
2018-04-13T05:59:58.843Z,84.10
2018-04-13T06:02:26.368Z,83.80
2018-04-13T06:04:53.928Z,83.40
2018-04-13T06:07:21.465Z,82.30
2018-04-13T06:09:49.040Z,82.60
2018-04-13T06:12:16.561Z,83.40
2018-04-13T06:14:44.085Z,82.90
2018-04-13T06:17:11.644Z,81.80
2018-04-13T06:19:39.173Z,82.70
2018-04-13T06:22:07.718Z,82.90
2018-04-13T06:24:35.233Z,82.30
2018-04-13T06:27:02.768Z,82.20
2018-04-13T06:29:30.335Z,82.40
2018-04-13T06:31:57.870Z,82.50
2018-04-13T06:34:25.420Z,82.30
2018-04-13T06:36:55.045Z,81.70
2018-04-13T06:39:20.598Z,81.50
2018-04-13T06:41:48.124Z,79.30
2018-04-13T06:44:15.662Z,82.00
2018-04-13T06:46:43.228Z,79.70
2018-04-13T06:49:10.749Z,81.20
2018-04-13T06:51:38.329Z,79.70
2018-04-13T06:54:05.862Z,78.70
2018-04-13T06:56:33.400Z,78.50
2018-04-13T06:59:00.970Z,77.80
2018-04-13T07:01:29.432Z,78.30
2018-04-13T07:03:56.989Z,78.70
2018-04-13T07:06:25.480Z,78.80
2018-04-13T07:08:52.996Z,78.20
2018-04-13T07:11:20.544Z,79.30
2018-04-13T07:13:48.071Z,79.00
2018-04-13T07:16:16.599Z,78.40
2018-04-13T07:18:44.133Z,78.40
2018-04-13T07:21:11.673Z,76.60
2018-04-13T07:23:39.220Z,77.60
2018-04-13T07:26:06.741Z,77.50
2018-04-13T07:28:34.297Z,76.70
2018-04-13T07:31:01.825Z,77.20
2018-04-13T07:33:29.341Z,77.00
2018-04-13T07:35:56.893Z,74.80
2018-04-13T07:38:24.423Z,76.60
2018-04-13T07:40:51.973Z,76.60
2018-04-13T07:43:19.496Z,75.90
2018-04-13T07:45:47.053Z,75.60
2018-04-13T07:48:14.633Z,75.60
2018-04-13T07:50:42.925Z,74.60
2018-04-13T07:53:10.473Z,74.60
2018-04-13T07:55:38.982Z,74.30
2018-04-13T07:58:06.547Z,73.70
2018-04-13T08:00:34.679Z,73.80
2018-04-13T08:03:01.672Z,74.00
2018-04-13T08:05:29.190Z,74.00
2018-04-13T08:07:57.676Z,73.90
2018-04-13T08:10:25.459Z,73.90
2018-04-13T08:12:52.802Z,73.90
2018-04-13T08:15:21.337Z,74.70
2018-04-13T08:17:49.852Z,75.20
2018-04-13T08:20:17.372Z,75.10
2018-04-13T08:22:45.022Z,74.60
2018-04-13T08:25:12.553Z,74.50
2018-04-13T08:27:42.057Z,74.50
2018-04-13T08:30:10.545Z,74.40
2018-04-13T08:32:38.088Z,74.20
2018-04-13T08:35:05.993Z,74.10
2018-04-13T08:37:33.519Z,74.10
2018-04-13T08:40:01.075Z,74.30
2018-04-13T08:42:28.628Z,74.00
2018-04-13T08:44:56.160Z,74.10
2018-04-13T08:47:26.094Z,74.20
2018-04-13T08:49:53.688Z,73.70
2018-04-13T08:52:23.908Z,74.30
2018-04-13T08:54:51.431Z,74.30
2018-04-13T08:57:18.952Z,74.30
2018-04-13T08:59:46.513Z,74.40
2018-04-13T09:02:14.043Z,74.60
2018-04-13T09:04:41.593Z,75.00
2018-04-13T09:07:09.216Z,75.60
2018-04-13T09:09:37.522Z,76.90
2018-04-13T09:12:05.081Z,76.80
2018-04-13T09:14:39.508Z,77.00
2018-04-13T09:17:07.054Z,77.40
2018-04-13T09:19:34.601Z,77.40
2018-04-13T09:22:02.889Z,77.60
2018-04-13T09:24:30.430Z,77.60
2018-04-13T09:26:57.953Z,77.20
2018-04-13T09:29:27.474Z,77.80
2018-04-13T09:31:54.994Z,77.40
2018-04-13T09:34:22.521Z,77.60
2018-04-13T09:36:50.093Z,77.90
2018-04-13T09:39:17.616Z,78.50
2018-04-13T09:41:46.101Z,78.30
2018-04-13T09:44:13.649Z,78.10
2018-04-13T09:46:41.164Z,78.20
2018-04-13T09:49:08.695Z,77.80
2018-04-13T09:51:36.239Z,78.20
2018-04-13T09:54:04.526Z,80.00
2018-04-13T09:56:32.080Z,80.00
2018-04-13T09:59:00.388Z,82.80
2018-04-13T10:01:27.928Z,82.70
2018-04-13T10:04:05.128Z,81.70
2018-04-13T10:06:33.652Z,82.20
2018-04-13T10:09:01.204Z,82.70
2018-04-13T10:11:28.732Z,84.70
2018-04-13T10:13:56.256Z,85.30
2018-04-13T10:16:23.809Z,86.10
2018-04-13T10:18:51.333Z,86.50
2018-04-13T10:21:18.922Z,85.10
2018-04-13T10:23:47.246Z,80.00
2018-04-13T10:26:22.420Z,79.90
2018-04-13T10:28:49.944Z,80.50
2018-04-13T10:31:17.465Z,78.50
2018-04-13T10:33:45.780Z,75.60
2018-04-13T10:36:13.337Z,75.60
2018-04-13T10:38:41.002Z,73.50
2018-04-13T10:41:09.480Z,76.10
2018-04-13T10:43:37.032Z,76.80
2018-04-13T10:46:04.594Z,77.40
2018-04-13T10:48:32.148Z,77.90
2018-04-13T10:50:59.712Z,76.00
2018-04-13T10:53:27.228Z,77.00
2018-04-13T10:55:55.517Z,78.00
2018-04-13T10:58:23.067Z,78.00
2018-04-13T11:00:50.606Z,78.80
2018-04-13T11:03:18.158Z,78.80
2018-04-13T11:05:45.708Z,75.70
2018-04-13T11:08:13.246Z,75.80
2018-04-13T11:10:40.848Z,76.60
2018-04-13T11:13:08.367Z,75.70
2018-04-13T11:15:35.914Z,74.30
2018-04-13T11:18:03.436Z,73.80
2018-04-13T11:20:30.981Z,74.00
2018-04-13T11:22:59.515Z,73.00
2018-04-13T11:25:27.056Z,72.30
2018-04-13T11:27:54.606Z,71.50
2018-04-13T11:30:22.119Z,72.50
2018-04-13T11:32:49.715Z,74.10
2018-04-13T11:35:17.271Z,74.70
2018-04-13T11:37:45.569Z,73.60
2018-04-13T11:40:13.142Z,73.60
2018-04-13T11:42:40.660Z,72.60
2018-04-13T11:45:08.948Z,68.50
2018-04-13T11:47:36.488Z,68.50
2018-04-13T11:50:04.017Z,63.10
2018-04-13T11:52:31.561Z,61.00
2018-04-13T11:54:59.081Z,61.00
2018-04-13T11:57:26.604Z,60.90
2018-04-13T11:59:54.145Z,59.40
2018-04-13T12:02:22.654Z,62.70
2018-04-13T12:04:52.189Z,63.90
2018-04-13T12:07:19.740Z,65.20
2018-04-13T12:09:47.259Z,65.20
2018-04-13T12:12:14.809Z,65.50
2018-04-13T12:14:42.333Z,64.10
2018-04-13T12:17:09.885Z,63.60
2018-04-13T12:19:37.431Z,59.70
2018-04-13T12:22:05.729Z,61.10
2018-04-13T12:24:33.272Z,61.10
2018-04-13T12:27:01.762Z,60.90
2018-04-13T12:29:29.305Z,58.00
2018-04-13T12:31:57.606Z,59.30
2018-04-13T12:34:25.880Z,58.70
2018-04-13T12:36:54.459Z,58.70
2018-04-13T12:39:22.019Z,58.90
2018-04-13T12:41:49.585Z,60.00
2018-04-13T12:44:17.105Z,59.20
2018-04-13T12:46:44.629Z,56.70
2018-04-13T12:49:12.173Z,54.80
2018-04-13T12:51:40.660Z,52.90
2018-04-13T12:54:08.225Z,54.60
2018-04-13T12:56:35.820Z,54.90
2018-04-13T12:59:03.307Z,54.50
2018-04-13T13:01:30.865Z,55.80
2018-04-13T13:03:59.150Z,54.80
2018-04-13T13:06:26.706Z,54.70
2018-04-13T13:08:54.273Z,51.70
2018-04-13T13:11:22.544Z,52.70
2018-04-13T13:13:50.118Z,52.70
2018-04-13T13:16:17.643Z,52.50
2018-04-13T13:18:45.960Z,50.70
2018-04-13T13:21:13.483Z,50.70
2018-04-13T13:23:41.761Z,51.30
2018-04-13T13:26:11.215Z,51.30
2018-04-13T13:28:38.738Z,48.80
2018-04-13T13:31:06.286Z,44.60
2018-04-13T13:33:33.825Z,46.30
2018-04-13T13:36:01.351Z,48.20
2018-04-13T13:38:30.843Z,49.90
2018-04-13T13:40:58.373Z,50.70
2018-04-13T13:43:25.941Z,50.60
2018-04-13T13:45:53.464Z,50.20
2018-04-13T13:48:21.761Z,48.70
2018-04-13T13:50:49.315Z,48.70
2018-04-13T13:53:16.841Z,46.10
2018-04-13T13:55:44.409Z,47.40
2018-04-13T13:58:11.953Z,48.90
2018-04-13T14:00:39.488Z,49.20
2018-04-13T14:03:07.053Z,50.30
2018-04-13T14:05:34.598Z,49.60
2018-04-13T14:08:02.161Z,48.90
2018-04-13T14:10:29.681Z,49.50
2018-04-13T14:12:57.204Z,48.30
2018-04-13T14:15:24.769Z,48.70
2018-04-13T14:17:52.290Z,48.60
2018-04-13T14:20:19.849Z,49.40
2018-04-13T14:22:47.374Z,48.10
2018-04-13T14:25:14.917Z,48.40
2018-04-13T14:27:42.469Z,46.30
2018-04-13T14:30:10.753Z,45.90
2018-04-13T14:32:38.308Z,45.90
2018-04-13T14:35:05.825Z,45.00
2018-04-13T14:37:34.307Z,43.70
2018-04-13T14:40:01.880Z,44.10
2018-04-13T14:42:29.422Z,44.70
2018-04-13T14:44:56.948Z,42.80
2018-04-13T14:47:25.265Z,41.60
2018-04-13T14:49:52.798Z,41.60
2018-04-13T14:52:20.337Z,42.10
2018-04-13T14:54:49.628Z,42.10
2018-04-13T14:57:17.158Z,42.10
2018-04-13T14:59:44.713Z,42.30
2018-04-13T15:02:12.256Z,42.00
2018-04-13T15:04:39.789Z,40.80
2018-04-13T15:07:07.338Z,42.40
2018-04-13T15:09:35.633Z,45.40
2018-04-13T15:12:03.193Z,45.40
2018-04-13T15:14:30.719Z,46.10
2018-04-13T15:16:59.022Z,44.60
2018-04-13T15:19:26.935Z,44.00
2018-04-13T15:21:54.471Z,44.00
2018-04-13T15:24:22.033Z,44.90
2018-04-13T15:26:49.561Z,40.30
2018-04-13T15:29:17.093Z,38.90
2018-04-13T15:31:44.653Z,39.60
2018-04-13T15:34:13.899Z,39.50
2018-04-13T15:36:41.421Z,39.50
2018-04-13T15:39:09.719Z,44.30
2018-04-13T15:41:37.253Z,44.20
2018-04-13T15:44:06.752Z,40.90
2018-04-13T15:46:35.230Z,38.00
2018-04-13T15:49:02.817Z,39.60
2018-04-13T15:51:30.373Z,40.60
2018-04-13T15:53:58.670Z,41.40
2018-04-13T15:56:26.259Z,41.40
2018-04-13T15:58:53.775Z,42.80
2018-04-13T16:01:21.330Z,43.80
2018-04-13T16:03:49.844Z,43.10
2018-04-13T16:06:17.374Z,39.90
2018-04-13T16:08:44.946Z,38.50
2018-04-13T16:11:12.467Z,36.60
2018-04-13T16:13:40.033Z,33.30
2018-04-13T16:16:08.323Z,36.60
2018-04-13T16:18:35.865Z,36.50
2018-04-13T16:21:03.415Z,37.20
2018-04-13T16:23:30.940Z,39.50
2018-04-13T16:25:58.494Z,39.60
2018-04-13T16:28:26.013Z,40.10
2018-04-13T16:30:53.546Z,40.30
2018-04-13T16:33:22.088Z,40.40
2018-04-13T16:35:49.622Z,41.40
2018-04-13T16:38:18.155Z,41.80
2018-04-13T16:40:45.682Z,42.00
2018-04-13T16:43:13.207Z,43.00
2018-04-13T16:45:40.757Z,43.10
2018-04-13T16:48:09.049Z,44.30
2018-04-13T16:50:36.665Z,44.30
2018-04-13T16:53:04.171Z,44.90
2018-04-13T16:55:31.720Z,45.10
2018-04-13T16:57:59.263Z,45.60
2018-04-13T17:00:26.800Z,45.60
2018-04-13T17:02:54.348Z,45.90
2018-04-13T17:05:21.897Z,46.40
2018-04-13T17:07:49.458Z,46.70
2018-04-13T17:10:17.014Z,47.80
2018-04-13T17:12:44.538Z,56.20
2018-04-13T17:15:12.081Z,59.70
2018-04-13T17:17:39.614Z,60.80
2018-04-13T17:20:07.164Z,65.10
2018-04-13T17:22:34.716Z,63.70
2018-04-13T17:25:02.250Z,66.90
2018-04-13T17:27:29.850Z,66.30
2018-04-13T17:29:57.493Z,67.10
2018-04-13T17:32:25.032Z,66.30
2018-04-13T17:34:52.599Z,65.30
2018-04-13T17:37:20.138Z,68.90
2018-04-13T17:39:47.708Z,64.10
2018-04-13T17:42:15.256Z,66.30
2018-04-13T17:44:42.796Z,70.00
2018-04-13T17:47:10.373Z,66.60
2018-04-13T17:49:37.929Z,69.70
2018-04-13T17:52:06.465Z,70.20
2018-04-13T17:54:34.001Z,66.30
2018-04-13T17:57:01.527Z,69.60
2018-04-13T17:59:29.078Z,68.60
2018-04-13T18:01:57.374Z,73.10
2018-04-13T18:04:26.866Z,73.10
2018-04-13T18:06:54.401Z,72.30
2018-04-13T18:09:21.953Z,75.10
2018-04-13T18:11:50.448Z,75.30
2018-04-13T18:14:17.977Z,75.40
2018-04-13T18:16:45.541Z,76.00
2018-04-13T18:19:13.099Z,75.90
2018-04-13T18:21:41.557Z,77.00
2018-04-13T18:24:09.118Z,77.90
2018-04-13T18:26:37.601Z,77.40
2018-04-13T18:29:05.154Z,76.80
2018-04-13T18:31:33.303Z,76.70
2018-04-13T18:34:00.840Z,76.30
2018-04-13T18:36:29.352Z,78.60
2018-04-13T18:38:56.882Z,78.60
2018-04-13T18:41:26.202Z,79.90
2018-04-13T18:43:53.744Z,79.80
2018-04-13T18:46:21.302Z,79.00
2018-04-13T18:48:49.696Z,81.40
2018-04-13T18:51:18.244Z,81.40
2018-04-13T18:53:45.789Z,81.00
2018-04-13T18:56:13.322Z,80.20
2018-04-13T18:58:40.870Z,80.10
2018-04-13T19:01:08.440Z,81.60
2018-04-13T19:03:36.030Z,80.10
2018-04-13T19:06:03.575Z,79.20
2018-04-13T19:08:32.080Z,79.10
2018-04-13T19:10:59.623Z,80.10
2018-04-13T19:13:27.185Z,80.50
2018-04-13T19:15:54.740Z,80.70
2018-04-13T19:18:22.356Z,82.00
2018-04-13T19:20:49.892Z,83.10
2018-04-13T19:23:19.161Z,82.00
2018-04-13T19:25:48.477Z,82.40
2018-04-13T19:28:16.797Z,82.00
2018-04-13T19:30:44.383Z,81.90
2018-04-13T19:33:12.713Z,82.90
2018-04-13T19:35:40.266Z,82.90
2018-04-13T19:38:07.845Z,83.00
2018-04-13T19:40:35.410Z,83.30
2018-04-13T19:43:02.977Z,84.00
2018-04-13T19:45:30.520Z,83.70
2018-04-13T19:47:58.093Z,83.70
2018-04-13T19:50:25.652Z,82.90
2018-04-13T19:52:53.176Z,84.10
2018-04-13T19:55:20.745Z,82.70
2018-04-13T19:57:48.331Z,83.80
2018-04-13T20:00:16.617Z,83.90
2018-04-13T20:02:44.150Z,83.90
2018-04-13T20:05:11.686Z,83.30
2018-04-13T20:07:40.028Z,83.60
2018-04-13T20:10:07.660Z,83.50
2018-04-13T20:12:35.226Z,84.20
2018-04-13T20:15:03.741Z,84.20
2018-04-13T20:17:31.258Z,84.40
2018-04-13T20:19:59.766Z,86.10
2018-04-13T20:22:27.292Z,85.60
2018-04-13T20:24:56.760Z,86.20
2018-04-13T20:27:24.283Z,87.50
2018-04-13T20:29:52.751Z,87.10
2018-04-13T20:32:20.313Z,87.40
2018-04-13T20:34:47.826Z,87.60
2018-04-13T20:37:16.138Z,87.70
2018-04-13T20:39:44.627Z,87.70
2018-04-13T20:42:12.148Z,87.40
2018-04-13T20:44:40.464Z,85.50
2018-04-13T20:47:07.980Z,85.50
2018-04-13T20:49:35.538Z,85.30
2018-04-13T20:52:03.064Z,85.70
2018-04-13T20:54:30.584Z,86.50
2018-04-13T20:56:58.153Z,86.50
2018-04-13T20:59:25.695Z,86.70
2018-04-13T21:01:53.240Z,86.80
2018-04-13T21:04:20.791Z,86.50
2018-04-13T21:06:48.350Z,87.40
2018-04-13T21:09:15.913Z,87.60
2018-04-13T21:11:43.429Z,87.50
2018-04-13T21:14:10.989Z,88.10
2018-04-13T21:16:39.519Z,88.10
2018-04-13T21:19:07.057Z,88.90
2018-04-13T21:21:36.334Z,89.30
2018-04-13T21:24:03.857Z,89.20
2018-04-13T21:26:31.404Z,88.70
2018-04-13T21:28:58.918Z,88.20
2018-04-13T21:31:26.470Z,89.00
2018-04-13T21:33:53.992Z,89.00
2018-04-13T21:36:21.506Z,88.80
2018-04-13T21:38:49.059Z,89.70
2018-04-13T21:41:16.576Z,89.60
2018-04-13T21:43:45.081Z,88.70
2018-04-13T21:46:12.602Z,88.30
2018-04-13T21:48:40.126Z,88.20
2018-04-13T21:51:10.334Z,87.90
2018-04-13T21:53:38.671Z,88.40
2018-04-13T21:56:06.237Z,88.40
2018-04-13T21:58:33.774Z,88.80
2018-04-13T22:01:01.333Z,88.90
2018-04-13T22:03:28.845Z,88.90
2018-04-13T22:05:56.393Z,89.20
2018-04-13T22:08:23.924Z,89.20
2018-04-13T22:10:51.449Z,89.60
2018-04-13T22:13:29.696Z,90.00
2018-04-13T22:15:57.229Z,90.00
2018-04-13T22:18:25.729Z,90.10
2018-04-13T22:20:53.260Z,90.00
2018-04-13T22:23:20.801Z,90.00
2018-04-13T22:25:49.102Z,90.20
2018-04-13T22:28:16.632Z,90.20
2018-04-13T22:30:44.185Z,90.40
2018-04-13T22:33:11.709Z,90.30
2018-04-13T22:35:39.260Z,90.30
2018-04-13T22:38:06.774Z,90.40
2018-04-13T22:40:35.083Z,90.50
2018-04-13T22:43:02.619Z,90.50
2018-04-13T22:45:30.173Z,90.20
2018-04-13T22:47:58.485Z,90.50
2018-04-13T22:50:26.003Z,90.50
2018-04-13T22:52:53.592Z,90.40
2018-04-13T22:55:21.121Z,90.50
2018-04-13T22:57:49.410Z,90.60
2018-04-13T23:00:16.970Z,90.60
2018-04-13T23:02:44.495Z,90.60
2018-04-13T23:05:12.042Z,90.70
2018-04-13T23:07:39.556Z,91.00
2018-04-13T23:10:08.044Z,90.90
2018-04-13T23:12:35.611Z,90.70
2018-04-13T23:15:03.125Z,90.80
2018-04-13T23:17:30.686Z,90.80
2018-04-13T23:19:58.220Z,90.60
2018-04-13T23:22:36.492Z,91.40
2018-04-13T23:25:04.015Z,91.00
2018-04-13T23:27:32.317Z,91.00
2018-04-13T23:29:59.866Z,90.90
2018-04-13T23:32:27.388Z,91.10
2018-04-13T23:34:54.942Z,91.40
2018-04-13T23:37:22.460Z,91.20
2018-04-13T23:39:49.981Z,91.40
2018-04-13T23:42:18.319Z,91.20
2018-04-13T23:44:45.869Z,91.20
2018-04-13T23:47:13.411Z,91.20
2018-04-13T23:49:40.936Z,91.10
2018-04-13T23:52:09.252Z,91.20
2018-04-13T23:54:38.781Z,91.20
2018-04-13T23:57:06.311Z,91.40
2018-04-13T23:59:33.882Z,91.60
